Aviation Digital Data Service (ADDS)

Output produced by METARs form (2353 UTC 04 August 2015)
found at http://aviationweather.gov/adds/metars/
 
KLAX 042339Z 0500/0606 26014KT P6SM SCT180 
     FM050400 26007KT P6SM SCT200 
     FM050900 VRB05KT P6SM SCT007 SCT200 
     FM051700 25006KT P6SM SCT200 
     FM051900 26013KT P6SM SCT200 
     FM060400 26006KT P6SM SCT200